Mariq — SVA2152 — position and weather

sailwx.info

Track history (hours):
 
Tides and Currents Weather Stations Pressure Air Temp Water Temp Dewpoint Dewpoint Depression Visibility Wind Speed Wind Dir Waves Ship Positions

Mariq

Last reported at 2016-Jun-24 11:33 UTC. Time now 2016-Jun-26 02:55 UTC.
Position N 37°08' E 025°44'.

Length 57 m.

Type: Tanker. MMSI: 239758424.

Date/timePositionNaut miles runAvg speedWind from/ knotsBaromVisibWave heightAir tempDewpointWater temp
2016-Jun-24 11:33N 37°08' E 025°44'12 8.9
2016-Jun-24 10:14N 37°16' E 025°33'6 8.3
2016-Jun-24 09:33N 37°18' E 025°27'9 8.5
2016-Jun-24 08:33N 37°20' E 025°16'8 8.2
2016-Jun-24 07:33N 37°20' E 025°06'8 8.0
2016-Jun-24 06:33N 37°21' E 024°56'35 8.0
2016-Jun-24 02:14N 37°32' E 024°14'75 1.7
2016-Jun-22 06:07N 37°07' E 025°43'17 9.3
2016-Jun-22 04:19N 37°18' E 025°28'6 8.3
2016-Jun-22 03:33N 37°19' E 025°20'52 8.5
2016-Jun-21 21:26N 37°30' E 024°16'8 9.3
2016-Jun-21 20:33N 37°36' E 024°08'4 0.3
2016-Jun-21 09:15N 37°38' E 024°04'  
Track history (hours):
 
Tides and Currents Weather Stations Pressure Air Temp Water Temp Dewpoint Dewpoint Depression Visibility Wind Speed Wind Dir Waves Ship Positions

Mariq

Last reported at 2016-Jun-24 11:33 UTC. Time now 2016-Jun-26 02:55 UTC.
Position N 37°08' E 025°44'.

Length 57 m.

Type: Tanker. MMSI: 239758424.

Date/timePositionNaut miles runAvg speedWind from/ knotsBaromVisibWave heightAir tempDewpointWater temp
2016-Jun-24 11:33N 37°08' E 025°44'12 8.9
2016-Jun-24 10:14N 37°16' E 025°33'6 8.3
2016-Jun-24 09:33N 37°18' E 025°27'9 8.5
2016-Jun-24 08:33N 37°20' E 025°16'8 8.2
2016-Jun-24 07:33N 37°20' E 025°06'8 8.0
2016-Jun-24 06:33N 37°21' E 024°56'35 8.0
2016-Jun-24 02:14N 37°32' E 024°14'75 1.7
2016-Jun-22 06:07N 37°07' E 025°43'17 9.3
2016-Jun-22 04:19N 37°18' E 025°28'6 8.3
2016-Jun-22 03:33N 37°19' E 025°20'52 8.5
2016-Jun-21 21:26N 37°30' E 024°16'8 9.3
2016-Jun-21 20:33N 37°36' E 024°08'4 0.3
2016-Jun-21 09:15N 37°38' E 024°04'  

Dump ship's entire track history